UUMO METAR and TAF | Updated Today

UUMO METAR

Ostafyevo International Airport

Observation time: 32 min. ago

UUMO 052000Z 02003MPS 9999 BKN017 M02/M05 Q1028 R25/290050 NOSIG RMK QFE755/1007

Need help? Read our tutorial on how to read METARs or read the parsed version below.

Ostafyevo International Airport (UUMO) METAR

  • Weather conditions on Sun, 05 Feb 2023 20:00:00 +0000 (32 min. ago):
  • Present conditions: Dry
  • Clouds: Broken sky at 518 meters
  • Visibility: Greater than 10 km
  • Wind: 20 degrees at 3 knots
  • Temperature: -2 celsius
  • Dew point: -5 celsius
  • Pressure: 1028 millibars
  • Remarks: QFE755/1007


Useful to know...

UUMO TAF

Ostafyevo International Airport

TAF UUMO 051657Z 0518/0603 33003MPS 6000 BKN016 TEMPO 0518/0603 2800 -SN BR OVC011
Observation time: 3:35 hr. ago
Need help? Read our tutorial on how to read TAFs or read the parsed version below.

Parsed version of TAF for Ostafyevo International Airport (UUMO)

  • From 05 February at 18:00 UTC, to day 06 of the month at 03:00 UTC
  • Clouds: Broken sky at 488 meters
  • Visibility: 6000 meters
  • Wind: 330 degrees at 3
  • Expected to arise temporarily, from 05 February at 18:00 UTC, to day 06 of the month at 03:00 UTC
  • Clouds: Overcast sky at 335 meters
  • Visibility: 2800 meters
  • Other: Light snow; mist